Terminal Aerodrome Forecast
Issued by NWS Huntsville, AL

Home | Current Version | Previous Version | Text Only | Print | Product List | Glossary On
Versions: 1 2 3 4 5 6 7 8 9 10 11 12 13 14 15 16 17 18 19 20 21 22 23 24
000
FTUS44 KHUN 111120
TAFHSV
TAF
KHSV 111120Z 1112/1212 14005KT P6SM SKC
     FM111500 15010KT P6SM SCT050
     FM111800 15015G25KT P6SM BKN050
     FM120300 16015G25KT P6SM VCSH OVC030
     FM120800 18015G25KT 5SM -SHRA BR OVC015=

USA.gov is the U.S. government's official web portal to all federal, state and local government web resources and services.